createdAt,value
2022-09-23T00:00:44.863Z,93191.25
2022-09-23T00:02:17.076Z,93188.56
2022-09-23T00:03:49.445Z,93184.88
2022-09-23T00:05:21.235Z,93188.09
2022-09-23T00:06:52.880Z,93191.03
2022-09-23T00:08:24.409Z,93190.78
2022-09-23T00:09:56.511Z,93186.75
2022-09-23T00:11:28.385Z,93184.88
2022-09-23T00:12:59.980Z,93187.28
2022-09-23T00:14:31.945Z,93184.28
2022-09-23T00:16:04.982Z,93178.94
2022-09-23T00:17:36.549Z,93174.97
2022-09-23T00:19:08.385Z,93166.16
2022-09-23T00:20:40.781Z,93175.47
2022-09-23T00:22:14.085Z,93171.72
2022-09-23T00:23:45.777Z,93170.94
2022-09-23T00:25:17.328Z,93167.19
2022-09-23T00:26:48.958Z,93158.09
2022-09-23T00:28:20.533Z,93168.22
2022-09-23T00:29:52.202Z,93167.72
2022-09-23T00:31:24.616Z,93169.84
2022-09-23T00:32:57.310Z,93165.31
2022-09-23T00:34:29.980Z,93165.56
2022-09-23T00:36:02.317Z,93169.06
2022-09-23T00:37:33.870Z,93163.50
2022-09-23T00:39:05.965Z,93164.59
2022-09-23T00:40:42.784Z,93164.34
2022-09-23T00:42:16.530Z,93164.34
2022-09-23T00:43:49.308Z,93162.25
2022-09-23T00:45:20.895Z,93174.00
2022-09-23T00:46:52.433Z,93170.53
2022-09-23T00:48:24.152Z,93172.41
2022-09-23T00:50:13.934Z,93172.13
2022-09-23T00:51:47.113Z,93163.84
2022-09-23T00:53:20.145Z,93173.75
2022-09-23T00:54:52.315Z,93172.94
2022-09-23T00:56:23.879Z,93173.22
2022-09-23T00:57:56.043Z,93166.53
2022-09-23T00:59:29.276Z,93178.59
2022-09-23T01:01:01.050Z,93173.81
2022-09-23T01:02:33.127Z,93167.66
2022-09-23T01:04:05.134Z,93172.22
2022-09-23T01:05:36.754Z,93165.81
2022-09-23T01:07:08.297Z,93169.31
2022-09-23T01:08:40.656Z,93173.34
2022-09-23T01:10:13.857Z,93167.50
2022-09-23T01:11:51.469Z,93173.63
2022-09-23T01:13:36.091Z,93174.44
2022-09-23T01:15:24.009Z,93177.09
2022-09-23T01:16:58.926Z,93175.50
2022-09-23T01:18:33.466Z,93168.56
2022-09-23T01:20:24.555Z,93172.56
2022-09-23T01:22:11.073Z,93169.38
2022-09-23T01:23:57.607Z,93171.81
2022-09-23T01:25:29.193Z,93176.63
2022-09-23T01:27:00.774Z,93180.94
2022-09-23T01:28:35.400Z,93179.59
2022-09-23T01:30:07.115Z,93183.66
2022-09-23T01:31:43.564Z,93181.50
2022-09-23T01:33:21.293Z,93177.00
2022-09-23T01:34:52.864Z,93175.97
2022-09-23T01:36:26.218Z,93181.56
2022-09-23T01:38:05.106Z,93175.16
2022-09-23T01:39:37.799Z,93179.97
2022-09-23T01:41:16.851Z,93177.63
2022-09-23T01:42:53.196Z,93179.19
2022-09-23T01:44:29.720Z,93173.84
2022-09-23T01:46:01.542Z,93175.44
2022-09-23T01:47:43.149Z,93178.13
2022-09-23T01:49:22.289Z,93178.91
2022-09-23T01:50:58.934Z,93180.50
2022-09-23T01:52:32.955Z,93175.16
2022-09-23T01:54:06.360Z,93174.03
2022-09-23T01:55:38.783Z,93174.31
2022-09-23T01:57:12.234Z,93175.06
2022-09-23T01:58:48.404Z,93172.13
2022-09-23T02:00:20.207Z,93178.78
2022-09-23T02:01:57.817Z,93167.56
2022-09-23T02:03:32.643Z,93174.50
2022-09-23T02:05:19.425Z,93177.72
2022-09-23T02:07:01.348Z,93178.00
2022-09-23T02:08:41.923Z,93175.59
2022-09-23T02:10:16.047Z,93177.72
2022-09-23T02:11:48.458Z,93184.94
2022-09-23T02:13:22.706Z,93181.47
2022-09-23T02:14:57.710Z,93183.38
2022-09-23T02:16:34.124Z,93185.28
2022-09-23T02:18:10.109Z,93183.69
2022-09-23T02:19:43.804Z,93188.53
2022-09-23T02:21:15.890Z,93190.72
2022-09-23T02:22:56.522Z,93186.72
2022-09-23T02:24:29.633Z,93185.69
2022-09-23T02:26:27.852Z,93195.81
2022-09-23T02:28:19.461Z,93188.34
2022-09-23T02:29:56.721Z,93191.03
2022-09-23T02:31:38.008Z,93185.97
2022-09-23T02:33:15.957Z,93188.13
2022-09-23T02:35:08.540Z,93195.06
2022-09-23T02:36:42.731Z,93198.22
2022-09-23T02:38:35.877Z,93189.69
2022-09-23T02:40:29.628Z,93187.03
2022-09-23T02:42:07.922Z,93188.88
2022-09-23T02:43:45.358Z,93189.69
2022-09-23T02:45:16.970Z,93189.94
2022-09-23T02:46:52.518Z,93193.97
2022-09-23T02:48:27.546Z,93192.09
2022-09-23T02:49:59.153Z,93187.81
2022-09-23T02:51:34.520Z,93189.16
2022-09-23T02:53:06.310Z,93193.97
2022-09-23T02:54:38.303Z,93196.63
2022-09-23T02:56:16.297Z,93191.06
2022-09-23T02:57:48.390Z,93192.94
2022-09-23T02:59:20.602Z,93199.34
2022-09-23T03:00:58.140Z,93200.69
2022-09-23T03:02:36.229Z,93196.41
2022-09-23T03:04:07.949Z,93190.75
2022-09-23T03:05:42.277Z,93193.16
2022-09-23T03:07:14.923Z,93198.78
2022-09-23T03:08:53.449Z,93196.09
2022-09-23T03:10:26.568Z,93199.31
2022-09-23T03:12:16.592Z,93196.13
2022-09-23T03:14:00.369Z,93202.53
2022-09-23T03:15:32.129Z,93200.94
2022-09-23T03:17:05.021Z,93196.66
2022-09-23T03:18:37.867Z,93207.88
2022-09-23T03:20:18.152Z,93205.75
2022-09-23T03:21:52.211Z,93199.38
2022-09-23T03:23:26.999Z,93200.19
2022-09-23T03:25:00.330Z,93202.31
2022-09-23T03:26:32.463Z,93194.31
2022-09-23T03:28:04.167Z,93203.66
2022-09-23T03:29:37.085Z,93203.13
2022-09-23T03:31:08.835Z,93203.38
2022-09-23T03:32:42.318Z,93206.84
2022-09-23T03:34:15.455Z,93199.38
2022-09-23T03:36:11.102Z,93197.78
2022-09-23T03:38:02.858Z,93195.41
2022-09-23T03:39:36.375Z,93197.56
2022-09-23T03:41:09.615Z,93197.84
2022-09-23T03:42:41.253Z,93201.56
2022-09-23T03:44:12.870Z,93200.78
2022-09-23T03:45:45.961Z,93201.56
2022-09-23T03:47:18.907Z,93195.97
2022-09-23T03:48:50.557Z,93199.97
2022-09-23T03:50:22.590Z,93198.38
2022-09-23T03:51:54.937Z,93200.50
2022-09-23T03:53:26.527Z,93204.75
2022-09-23T03:54:58.116Z,93205.88
2022-09-23T03:56:29.703Z,93199.47
2022-09-23T03:58:03.272Z,93205.31
2022-09-23T03:59:34.955Z,93205.84
2022-09-23T04:01:06.903Z,93205.63
2022-09-23T04:02:38.737Z,93201.88
2022-09-23T04:04:10.401Z,93206.41
2022-09-23T04:05:43.218Z,93203.19
2022-09-23T04:07:15.116Z,93204.25
2022-09-23T04:08:46.805Z,93202.97
2022-09-23T04:10:18.501Z,93199.75
2022-09-23T04:11:50.487Z,93195.75
2022-09-23T04:13:22.218Z,93197.38
2022-09-23T04:14:53.840Z,93193.91
2022-09-23T04:16:25.461Z,93201.06
2022-09-23T04:17:57.348Z,93189.59
2022-09-23T04:19:29.053Z,93198.16
2022-09-23T04:21:00.717Z,93195.19
2022-09-23T04:22:33.227Z,93194.69
2022-09-23T04:24:04.818Z,93200.00
2022-09-23T04:25:36.472Z,93199.22
2022-09-23T04:27:08.308Z,93200.53
2022-09-23T04:28:39.953Z,93194.94
2022-09-23T04:30:12.251Z,93200.53
2022-09-23T04:31:43.830Z,93203.47
2022-09-23T04:33:15.581Z,93200.00
2022-09-23T04:34:47.119Z,93202.69
2022-09-23T04:36:18.837Z,93200.00
2022-09-23T04:37:50.486Z,93202.13
2022-09-23T04:39:22.481Z,93199.22
2022-09-23T04:40:54.236Z,93204.28
2022-09-23T04:42:28.407Z,93201.34
2022-09-23T04:44:00.157Z,93209.09
2022-09-23T04:45:31.829Z,93202.94
2022-09-23T04:47:04.551Z,93207.47
2022-09-23T04:48:36.996Z,93205.63
2022-09-23T04:50:08.889Z,93208.00
2022-09-23T04:51:44.309Z,93208.25
2022-09-23T04:53:16.809Z,93207.72
2022-09-23T04:54:48.598Z,93203.69
2022-09-23T04:56:22.010Z,93211.94
2022-09-23T04:57:53.718Z,93211.38
2022-09-23T04:59:25.296Z,93214.84
2022-09-23T05:01:01.706Z,93213.75
2022-09-23T05:02:37.174Z,93219.63
2022-09-23T05:04:10.263Z,93225.22
2022-09-23T05:05:41.802Z,93226.59
2022-09-23T05:07:13.377Z,93226.03
2022-09-23T05:08:48.525Z,93228.16
2022-09-23T05:10:20.140Z,93233.47
2022-09-23T05:11:52.214Z,93232.41
2022-09-23T05:13:24.211Z,93229.16
2022-09-23T05:14:57.155Z,93233.13
2022-09-23T05:16:29.552Z,93237.06
2022-09-23T05:18:02.874Z,93238.63
2022-09-23T05:19:34.487Z,93228.91
2022-09-23T05:21:06.280Z,93230.97
2022-09-23T05:22:37.933Z,93235.41
2022-09-23T05:24:09.899Z,93239.38
2022-09-23T05:25:42.790Z,93244.59
2022-09-23T05:27:14.386Z,93238.63
2022-09-23T05:28:45.977Z,93244.19
2022-09-23T05:30:17.932Z,93248.66
2022-09-23T05:31:49.484Z,93245.91
2022-09-23T05:33:21.392Z,93248.28
2022-09-23T05:34:54.805Z,93255.72
2022-09-23T05:36:26.711Z,93249.00
2022-09-23T05:37:58.209Z,93250.06
2022-09-23T05:39:31.216Z,93253.25
2022-09-23T05:41:06.204Z,93249.72
2022-09-23T05:42:37.753Z,93246.81
2022-09-23T05:44:10.966Z,93259.19
2022-09-23T05:45:42.624Z,93252.81
2022-09-23T05:47:14.557Z,93252.06
2022-09-23T05:48:47.438Z,93256.31
2022-09-23T05:50:19.046Z,93254.38
2022-09-23T05:51:50.833Z,93254.06
2022-09-23T05:53:22.809Z,93255.06
2022-09-23T05:54:54.380Z,93251.56
2022-09-23T05:56:26.424Z,93258.78
2022-09-23T05:57:58.070Z,93259.88
2022-09-23T05:59:29.706Z,93255.06
2022-09-23T06:01:01.357Z,93263.09
2022-09-23T06:02:33.252Z,93259.88
2022-09-23T06:04:05.650Z,93259.06
2022-09-23T06:05:37.554Z,93257.97
2022-09-23T06:07:09.187Z,93255.81
2022-09-23T06:08:41.293Z,93259.53
2022-09-23T06:10:12.873Z,93262.50
2022-09-23T06:11:44.612Z,93270.56
2022-09-23T06:13:16.428Z,93266.81
2022-09-23T06:14:48.973Z,93267.63
2022-09-23T06:16:20.776Z,93264.78
2022-09-23T06:17:52.639Z,93268.19
2022-09-23T06:19:24.223Z,93264.00
2022-09-23T06:20:55.754Z,93271.03
2022-09-23T06:22:27.734Z,93269.72
2022-09-23T06:24:03.088Z,93275.31
2022-09-23T06:25:35.034Z,93272.31
2022-09-23T06:27:07.817Z,93263.41
2022-09-23T06:28:40.575Z,93258.78
2022-09-23T06:30:12.319Z,93260.25
2022-09-23T06:31:44.144Z,93258.97
2022-09-23T06:33:16.852Z,93257.63
2022-09-23T06:34:52.096Z,93264.34
2022-09-23T06:36:39.736Z,93266.38
2022-09-23T06:38:13.369Z,93267.28
2022-09-23T06:39:45.000Z,93263.41
2022-09-23T06:41:16.812Z,93264.34
2022-09-23T06:42:52.305Z,93263.28
2022-09-23T06:44:24.167Z,93261.25
2022-09-23T06:45:56.449Z,93251.38
2022-09-23T06:47:29.300Z,93255.06
2022-09-23T06:49:03.405Z,93254.59
2022-09-23T06:50:35.135Z,93250.06
2022-09-23T07:30:03.420Z,93263.13
2022-09-23T07:31:39.742Z,93271.25
2022-09-23T07:33:26.552Z,93257.13
2022-09-23T07:35:01.842Z,93262.78
2022-09-23T07:36:33.454Z,93258.59
2022-09-23T07:38:05.074Z,93256.69
2022-09-23T07:39:36.921Z,93250.16
2022-09-23T07:41:09.156Z,93261.78
2022-09-23T07:42:41.259Z,93253.06
2022-09-23T07:44:12.930Z,93258.75
2022-09-23T07:45:45.690Z,93259.56
2022-09-23T07:47:17.445Z,93254.84
2022-09-23T07:48:49.312Z,93251.25
2022-09-23T07:50:22.708Z,93250.47
2022-09-23T07:51:54.690Z,93259.19
2022-09-23T07:53:26.923Z,93255.88
2022-09-23T07:54:58.660Z,93247.91
2022-09-23T07:56:30.973Z,93259.28
2022-09-23T07:58:03.223Z,93258.69
2022-09-23T07:59:35.171Z,93257.91
2022-09-23T08:01:08.107Z,93259.69
2022-09-23T08:02:40.475Z,93256.66
2022-09-23T08:04:33.361Z,93255.19
2022-09-23T08:06:05.543Z,93260.59
2022-09-23T08:07:37.793Z,93262.56
2022-09-23T08:09:09.521Z,93264.84
2022-09-23T08:10:41.238Z,93256.78
2022-09-23T08:12:16.142Z,93260.75
2022-09-23T08:13:48.208Z,93255.69
2022-09-23T08:15:19.920Z,93265.38
2022-09-23T08:16:52.037Z,93257.41
2022-09-23T08:18:23.786Z,93249.38
2022-09-23T08:19:55.559Z,93258.00
2022-09-23T08:21:27.222Z,93254.31
2022-09-23T08:22:59.403Z,93250.50
2022-09-23T08:24:32.478Z,93256.34
2022-09-23T08:26:05.151Z,93253.59
2022-09-23T08:27:37.142Z,93243.88
2022-09-23T08:29:12.265Z,93251.63
2022-09-23T08:30:44.719Z,93251.97
2022-09-23T08:32:16.894Z,93251.38
2022-09-23T08:33:48.799Z,93249.63
2022-09-23T08:35:21.003Z,93258.81
2022-09-23T08:36:53.213Z,93255.31
2022-09-23T08:38:24.827Z,93255.94
2022-09-23T08:39:56.736Z,93249.53
2022-09-23T08:41:34.954Z,93250.16
2022-09-23T08:43:07.361Z,93256.63
2022-09-23T08:44:52.219Z,93253.88
2022-09-23T08:46:27.968Z,93257.75
2022-09-23T08:48:20.248Z,93254.78
2022-09-23T08:50:07.819Z,93250.56
2022-09-23T08:51:41.151Z,93254.59
2022-09-23T08:53:19.428Z,93252.53
2022-09-23T08:54:55.244Z,93248.22
2022-09-23T08:56:27.314Z,93259.53
2022-09-23T08:58:27.200Z,93260.16
2022-09-23T08:59:59.419Z,93251.53
2022-09-23T09:01:35.058Z,93249.25
2022-09-23T09:03:33.437Z,93248.50
2022-09-23T09:05:07.865Z,93251.88
2022-09-23T09:06:52.929Z,93255.47
2022-09-23T09:08:27.420Z,93256.53
2022-09-23T09:10:06.468Z,93254.44
2022-09-23T09:11:39.132Z,93248.09
2022-09-23T09:13:31.601Z,93246.91
2022-09-23T09:15:08.189Z,93251.56
2022-09-23T09:17:02.151Z,93254.81
2022-09-23T09:18:33.959Z,93259.31
2022-09-23T09:20:05.904Z,93252.28
2022-09-23T09:21:38.916Z,93253.09
2022-09-23T09:23:23.045Z,93254.25
2022-09-23T09:24:55.113Z,93244.53
2022-09-23T09:26:28.031Z,93247.69
2022-09-23T09:27:59.917Z,93246.56
2022-09-23T09:29:35.740Z,93248.81
2022-09-23T09:31:21.560Z,93248.63
2022-09-23T09:32:58.651Z,93257.63
2022-09-23T09:34:30.253Z,93257.63
2022-09-23T09:36:18.366Z,93254.91
2022-09-23T09:37:50.103Z,93254.47
2022-09-23T09:39:26.000Z,93258.22
2022-09-23T09:41:00.468Z,93249.03
2022-09-23T09:42:41.251Z,93254.00
2022-09-23T09:44:32.581Z,93246.59
2022-09-23T09:46:14.291Z,93248.72
2022-09-23T09:47:47.098Z,93247.88
2022-09-23T09:49:23.618Z,93257.00
2022-09-23T09:50:56.395Z,93258.03
2022-09-23T09:52:30.192Z,93255.03
2022-09-23T09:54:23.269Z,93250.06
2022-09-23T09:56:05.560Z,93248.75
2022-09-23T09:57:38.357Z,93250.56
2022-09-23T09:59:16.626Z,93256.25
2022-09-23T10:00:50.831Z,93245.50
2022-09-23T10:02:25.035Z,93253.25
2022-09-23T10:03:59.568Z,93246.88
2022-09-23T10:05:46.485Z,93249.78
2022-09-23T10:07:19.275Z,93246.03
2022-09-23T10:09:09.951Z,93247.69
2022-09-23T10:10:44.794Z,93254.59
2022-09-23T10:12:20.171Z,93255.28
2022-09-23T10:14:02.659Z,93255.28
2022-09-23T10:15:44.719Z,93249.66
2022-09-23T10:17:28.951Z,93257.25
2022-09-23T10:19:01.196Z,93256.25
2022-09-23T10:20:36.602Z,93256.03
2022-09-23T10:22:10.075Z,93254.47
2022-09-23T10:23:43.007Z,93255.84
2022-09-23T10:25:20.756Z,93255.19
2022-09-23T10:26:55.266Z,93255.50
2022-09-23T10:28:43.213Z,93245.75
2022-09-23T10:30:24.887Z,93252.22
2022-09-23T10:32:15.574Z,93247.69
2022-09-23T10:33:48.416Z,93244.41
2022-09-23T10:35:24.689Z,93247.47
2022-09-23T10:37:07.983Z,93249.16
2022-09-23T10:38:41.099Z,93249.94
2022-09-23T10:40:40.362Z,93248.69
2022-09-23T10:42:34.372Z,93249.72
2022-09-23T10:44:11.966Z,93242.47
2022-09-23T10:46:24.330Z,93243.84
2022-09-23T10:47:57.608Z,93240.00
2022-09-23T10:49:41.995Z,93238.53
2022-09-23T10:51:26.388Z,93240.44
2022-09-23T10:52:58.246Z,93242.50
2022-09-23T10:54:32.493Z,93237.41
2022-09-23T10:56:20.633Z,93232.31
2022-09-23T10:57:55.733Z,93231.38
2022-09-23T10:59:31.118Z,93229.91
2022-09-23T11:01:09.221Z,93228.44
2022-09-23T11:02:52.023Z,93224.16
2022-09-23T11:04:42.435Z,93225.72
2022-09-23T11:06:23.335Z,93218.94
2022-09-23T11:07:57.429Z,93221.88
2022-09-23T11:09:32.686Z,93214.75
2022-09-23T11:11:04.738Z,93213.88
2022-09-23T11:12:41.661Z,93210.00
2022-09-23T11:14:31.834Z,93205.00
2022-09-23T11:16:10.708Z,93201.06
2022-09-23T11:17:58.887Z,93192.00
2022-09-23T11:19:34.276Z,93190.97
2022-09-23T11:21:32.564Z,93189.94
2022-09-23T11:23:22.956Z,93190.13
2022-09-23T11:25:03.546Z,93185.53
2022-09-23T11:26:35.790Z,93187.66
2022-09-23T11:28:10.685Z,93186.16
2022-09-23T11:29:54.965Z,93173.16
2022-09-23T11:31:47.551Z,93186.75
2022-09-23T11:33:28.720Z,93186.75
2022-09-23T11:35:20.738Z,93186.94
2022-09-23T11:36:53.435Z,93188.56
2022-09-23T11:38:30.458Z,93181.41
2022-09-23T11:40:05.884Z,93195.78
2022-09-23T11:41:38.513Z,93180.69
2022-09-23T11:43:15.980Z,93184.13
2022-09-23T11:44:50.336Z,93188.75
2022-09-23T11:46:31.195Z,93186.16
2022-09-23T12:31:32.370Z,93143.06
2022-09-23T12:33:09.626Z,93151.41
2022-09-23T12:34:44.454Z,93147.19
2022-09-23T12:36:35.784Z,93144.84
2022-09-23T12:38:33.596Z,93152.50
2022-09-23T12:40:06.708Z,93148.31
2022-09-23T12:41:41.913Z,93154.00
2022-09-23T12:43:17.355Z,93153.53
2022-09-23T12:44:49.794Z,93152.50
2022-09-23T12:46:27.918Z,93149.88
2022-09-23T12:48:00.137Z,93149.31
2022-09-23T12:49:31.919Z,93144.72
2022-09-23T12:51:03.626Z,93142.56
2022-09-23T12:52:35.767Z,93151.09
2022-09-23T12:54:23.129Z,93148.59
2022-09-23T12:55:54.761Z,93151.13
2022-09-23T12:57:35.783Z,93146.19
2022-09-23T12:59:16.909Z,93153.03
2022-09-23T13:01:05.969Z,93158.97
2022-09-23T13:02:39.466Z,93150.91
2022-09-23T13:04:48.793Z,93145.16
2022-09-23T13:06:38.917Z,93153.56
2022-09-23T13:08:16.518Z,93149.59
2022-09-23T13:09:49.454Z,93148.34
2022-09-23T13:11:28.545Z,93148.91
2022-09-23T13:13:00.396Z,93152.09
2022-09-23T13:14:32.794Z,93146.00
2022-09-23T13:16:11.723Z,93148.53
2022-09-23T13:17:43.530Z,93145.38
2022-09-23T13:19:27.354Z,93151.56
2022-09-23T13:20:59.049Z,93141.69
2022-09-23T13:23:00.236Z,93145.84
2022-09-23T13:24:36.552Z,93136.06
2022-09-23T13:26:11.326Z,93143.75
2022-09-23T13:27:43.240Z,93136.94
2022-09-23T13:29:17.409Z,93136.72
2022-09-23T13:30:50.470Z,93144.25
2022-09-23T13:32:23.077Z,93144.13
2022-09-23T13:33:57.133Z,93135.84
2022-09-23T13:35:38.635Z,93136.72
2022-09-23T13:37:22.427Z,93138.06
2022-09-23T13:38:54.453Z,93137.25
2022-09-23T13:40:27.908Z,93136.53
2022-09-23T13:42:01.342Z,93126.09
2022-09-23T13:43:40.285Z,93133.19
2022-09-23T13:45:19.714Z,93131.38
2022-09-23T13:46:52.140Z,93135.44
2022-09-23T13:48:28.307Z,93140.16
2022-09-23T13:50:00.485Z,93132.47
2022-09-23T13:51:34.191Z,93130.94
2022-09-23T13:53:06.942Z,93125.81
2022-09-23T13:54:49.453Z,93130.84
2022-09-23T13:56:21.383Z,93129.72
2022-09-23T13:58:02.961Z,93129.69
2022-09-23T13:59:38.330Z,93126.97
2022-09-23T14:01:31.256Z,93128.53
2022-09-23T14:03:03.745Z,93133.22
2022-09-23T14:04:35.600Z,93126.97
2022-09-23T14:06:11.128Z,93125.38
2022-09-23T14:07:43.142Z,93119.91
2022-09-23T14:09:14.904Z,93125.22
2022-09-23T14:10:47.085Z,93122.81
2022-09-23T14:12:22.463Z,93125.91
2022-09-23T14:13:55.600Z,93126.75
2022-09-23T14:15:27.274Z,93120.44
2022-09-23T14:16:59.549Z,93126.59
2022-09-23T14:18:31.851Z,93121.78
2022-09-23T14:20:03.720Z,93120.88
2022-09-23T14:21:36.186Z,93118.38
2022-09-23T14:23:10.452Z,93115.09
2022-09-23T14:24:43.093Z,93116.63
2022-09-23T14:26:15.072Z,93118.94
2022-09-23T14:27:47.435Z,93122.72
2022-09-23T14:29:20.303Z,93117.94
2022-09-23T14:30:52.683Z,93115.84
2022-09-23T14:32:26.347Z,93115.63
2022-09-23T14:33:58.003Z,93112.34
2022-09-23T14:35:38.659Z,93130.34
2022-09-23T14:37:34.999Z,93121.56
2022-09-23T14:39:07.849Z,93119.03
2022-09-23T14:41:17.253Z,93123.97
2022-09-23T14:42:51.592Z,93117.50
2022-09-23T14:44:23.523Z,93121.66
2022-09-23T14:45:58.691Z,93114.13
2022-09-23T14:47:30.614Z,93110.16
2022-09-23T14:49:07.528Z,93116.75
2022-09-23T14:50:40.911Z,93111.13
2022-09-23T14:52:12.667Z,93117.59
2022-09-23T14:53:46.490Z,93110.81
2022-09-23T14:55:18.255Z,93114.69
2022-09-23T14:56:49.914Z,93108.78
2022-09-23T14:58:22.665Z,93116.09
2022-09-23T14:59:59.261Z,93123.84
2022-09-23T15:01:31.292Z,93118.50
2022-09-23T15:03:04.004Z,93123.00
2022-09-23T15:04:35.717Z,93115.72
2022-09-23T15:06:09.601Z,93122.84
2022-09-23T15:07:41.432Z,93122.44
2022-09-23T15:09:20.413Z,93112.41
2022-09-23T15:10:52.135Z,93119.06
2022-09-23T15:12:23.890Z,93125.38
2022-09-23T15:13:55.559Z,93126.50
2022-09-23T15:15:30.178Z,93119.06
2022-09-23T15:17:01.917Z,93127.22
2022-09-23T15:18:34.375Z,93123.72
2022-09-23T15:20:08.498Z,93118.16
2022-09-23T15:21:43.280Z,93130.41
2022-09-23T15:23:31.954Z,93124.47
2022-09-23T15:25:29.471Z,93123.09
2022-09-23T15:27:01.078Z,93128.03
2022-09-23T15:28:32.708Z,93126.94
2022-09-23T15:30:15.726Z,93126.38
2022-09-23T15:31:47.508Z,93127.97
2022-09-23T15:33:20.177Z,93125.25
2022-09-23T15:34:52.357Z,93124.44
2022-09-23T15:36:26.020Z,93122.44
2022-09-23T15:37:59.279Z,93128.09
2022-09-23T15:39:36.111Z,93120.88
2022-09-23T15:41:08.385Z,93129.25
2022-09-23T15:42:41.005Z,93124.53
2022-09-23T15:44:13.669Z,93130.53
2022-09-23T15:45:46.818Z,93129.66
2022-09-23T15:47:18.974Z,93136.78
2022-09-23T15:49:04.811Z,93140.16
2022-09-23T15:50:36.565Z,93135.53
2022-09-23T15:52:10.450Z,93133.50
2022-09-23T15:53:42.301Z,93134.53
2022-09-23T15:55:15.066Z,93131.69
2022-09-23T15:56:48.167Z,93131.25
2022-09-23T15:58:20.737Z,93129.56
2022-09-23T15:59:52.337Z,93131.34
2022-09-23T16:01:25.917Z,93132.28
2022-09-23T16:02:57.689Z,93134.84
2022-09-23T16:04:31.551Z,93134.31
2022-09-23T16:06:04.331Z,93134.19
2022-09-23T16:07:36.557Z,93134.97
2022-09-23T16:09:08.785Z,93135.88
2022-09-23T16:10:41.050Z,93137.44
2022-09-23T16:12:12.829Z,93140.13
2022-09-23T16:13:44.572Z,93138.78
2022-09-23T16:15:20.025Z,93139.22
2022-09-23T16:16:51.766Z,93142.84
2022-09-23T16:18:23.634Z,93146.75
2022-09-23T16:19:55.462Z,93148.22
2022-09-23T16:21:27.338Z,93150.47
2022-09-23T16:23:00.272Z,93151.50
2022-09-23T16:24:31.829Z,93141.63
2022-09-23T16:26:20.648Z,93133.09
2022-09-23T16:27:55.808Z,93149.22
2022-09-23T16:29:27.643Z,93144.91
2022-09-23T16:30:59.689Z,93146.66
2022-09-23T16:32:31.402Z,93157.53
2022-09-23T16:34:03.442Z,93151.88
2022-09-23T16:35:35.057Z,93152.84
2022-09-23T16:37:07.422Z,93150.69
2022-09-23T16:38:39.032Z,93154.13
2022-09-23T16:40:10.943Z,93153.72
2022-09-23T16:41:43.740Z,93156.31
2022-09-23T16:43:15.516Z,93156.19
2022-09-23T16:44:47.941Z,93155.13
2022-09-23T16:46:20.663Z,93163.44
2022-09-23T16:47:52.529Z,93167.75
2022-09-23T16:49:24.390Z,93170.94
2022-09-23T16:50:56.027Z,93162.19
2022-09-23T16:52:29.427Z,93175.59
2022-09-23T16:54:01.095Z,93176.72
2022-09-23T16:55:32.856Z,93175.75
2022-09-23T16:57:04.584Z,93167.47
2022-09-23T16:58:36.752Z,93177.84
2022-09-23T17:00:28.573Z,93174.19
2022-09-23T17:02:19.096Z,93182.03
2022-09-23T17:03:50.939Z,93185.84
2022-09-23T17:05:22.984Z,93181.56
2022-09-23T17:06:55.281Z,93179.84
2022-09-23T17:08:26.868Z,93188.91
2022-09-23T17:09:58.861Z,93187.63
2022-09-23T17:11:33.989Z,93191.78
2022-09-23T17:13:06.300Z,93186.06
2022-09-23T17:14:38.227Z,93202.47
2022-09-23T17:16:21.921Z,93191.47
2022-09-23T17:17:53.718Z,93198.63
2022-09-23T17:19:25.613Z,93196.41
2022-09-23T17:20:58.353Z,93198.94
2022-09-23T17:22:30.329Z,93198.66
2022-09-23T17:24:02.268Z,93210.06
2022-09-23T17:25:34.329Z,93205.63
2022-09-23T17:27:05.954Z,93211.19
2022-09-23T17:28:37.687Z,93204.00
2022-09-23T17:30:10.015Z,93210.66
2022-09-23T17:31:41.576Z,93209.38
2022-09-23T17:33:13.936Z,93217.97
2022-09-23T17:34:45.569Z,93218.59
2022-09-23T17:36:17.779Z,93217.00
2022-09-23T17:37:50.201Z,93227.63
2022-09-23T17:39:22.333Z,93229.69
2022-09-23T17:40:55.674Z,93224.41
2022-09-23T17:42:27.949Z,93221.56
2022-09-23T17:44:00.633Z,93230.59
2022-09-23T17:45:32.247Z,93233.91
2022-09-23T17:47:05.756Z,93241.84
2022-09-23T17:48:38.041Z,93236.28
2022-09-23T17:50:12.792Z,93244.38
2022-09-23T17:51:44.441Z,93238.50
2022-09-23T17:53:17.207Z,93234.69
2022-09-23T17:54:49.052Z,93237.06
2022-09-23T17:56:21.932Z,93248.34
2022-09-23T17:57:53.913Z,93242.47
2022-09-23T17:59:26.019Z,93240.38
2022-09-23T18:00:58.164Z,93235.47
2022-09-23T18:02:29.850Z,93244.78
2022-09-23T18:04:01.819Z,93235.44
2022-09-23T18:05:33.659Z,93244.44
2022-09-23T18:07:05.222Z,93240.75
2022-09-23T18:08:36.865Z,93243.47
2022-09-23T18:10:08.751Z,93248.84
2022-09-23T18:11:41.212Z,93242.34
2022-09-23T18:13:12.736Z,93240.75
2022-09-23T18:14:45.637Z,93249.16
2022-09-23T18:16:17.706Z,93253.00
2022-09-23T18:17:49.766Z,93257.91
2022-09-23T18:19:22.585Z,93251.03
2022-09-23T18:20:58.247Z,93265.06
2022-09-23T18:22:30.047Z,93259.84
2022-09-23T18:25:53.478Z,93265.72
2022-09-23T18:27:25.031Z,93266.31
2022-09-23T18:29:00.258Z,93261.34
2022-09-23T18:30:33.693Z,93274.66
2022-09-23T18:32:05.529Z,93270.16
2022-09-23T18:33:37.370Z,93271.06
2022-09-23T18:35:09.107Z,93268.72
2022-09-23T18:36:40.670Z,93266.63
2022-09-23T18:38:15.217Z,93266.41
2022-09-23T18:39:48.718Z,93276.22
2022-09-23T18:41:20.261Z,93272.03
2022-09-23T18:42:52.002Z,93271.06
2022-09-23T18:44:24.368Z,93273.06
2022-09-23T18:46:01.290Z,93275.88
2022-09-23T18:47:51.399Z,93279.50
2022-09-23T18:49:41.874Z,93276.41
2022-09-23T18:51:13.681Z,93281.41
2022-09-23T18:52:45.220Z,93277.25
2022-09-23T18:54:16.799Z,93279.53
2022-09-23T18:55:48.765Z,93282.34
2022-09-23T18:57:20.546Z,93284.53
2022-09-23T18:58:53.399Z,93282.44
2022-09-23T19:00:25.547Z,93288.13
2022-09-23T19:01:57.866Z,93287.94
2022-09-23T19:03:29.632Z,93289.50
2022-09-23T19:05:02.203Z,93289.91
2022-09-23T19:06:35.066Z,93295.41
2022-09-23T19:08:06.998Z,93293.09
2022-09-23T19:09:39.230Z,93292.91
2022-09-23T19:11:12.520Z,93289.75
2022-09-23T19:12:44.215Z,93294.78
2022-09-23T19:14:16.030Z,93300.69
2022-09-23T19:15:48.629Z,93292.09
2022-09-23T19:17:20.857Z,93297.81
2022-09-23T19:18:52.862Z,93301.88
2022-09-23T19:20:25.513Z,93293.09
2022-09-23T19:21:57.136Z,93305.53
2022-09-23T19:23:29.532Z,93298.34
2022-09-23T19:25:01.387Z,93303.22
2022-09-23T19:26:37.766Z,93304.72
2022-09-23T19:28:09.535Z,93310.69
2022-09-23T19:29:42.145Z,93306.22
2022-09-23T19:31:15.335Z,93305.41
2022-09-23T19:32:47.253Z,93306.22
2022-09-23T19:34:19.998Z,93305.19
2022-09-23T19:35:53.988Z,93305.78
2022-09-23T19:37:26.276Z,93315.72
2022-09-23T19:38:58.809Z,93313.34
2022-09-23T19:40:30.908Z,93315.53
2022-09-23T19:42:03.987Z,93322.00
2022-09-23T19:43:38.719Z,93323.59
2022-09-23T19:45:11.198Z,93319.31
2022-09-23T19:46:45.424Z,93319.31
2022-09-23T19:48:17.567Z,93323.59
2022-09-23T19:49:49.568Z,93319.31
2022-09-23T19:51:21.791Z,93327.66
2022-09-23T19:52:53.903Z,93324.78
2022-09-23T19:54:27.683Z,93323.16
2022-09-23T19:56:03.150Z,93320.78
2022-09-23T19:57:35.093Z,93314.41
2022-09-23T19:59:09.537Z,93309.13
2022-09-23T20:00:41.841Z,93316.75